Time;durP1;ratioP1;P1;durP2;ratioP2;P2;SDS_P1;SDS_P2;PMS_P1;PMS_P2;Temp;Humidity;BMP_temperature;BMP_pressure;BME280_temperature;BME280_humidity;BME280_pressure;Samples;Min_cycle;Max_cycle;Signal;HPM_P1;HPM_P2
2022/11/26 00:00:43;;;;;;;3.20;0.85;;;;;;;14.23;100.00;100332.19;7390395;19;20041;-56
2022/11/26 00:03:11;;;;;;;0.25;0.20;;;;;;;14.17;100.00;100336.94;7391232;19;20021;-57
2022/11/26 00:05:39;;;;;;;0.10;0.10;;;;;;;14.09;100.00;100333.03;7390853;19;20106;-56
2022/11/26 00:08:15;;;;;;;3.55;1.65;;;;;;;14.08;100.00;100337.06;7395474;19;20051;-56
2022/11/26 00:10:42;;;;;;;0.13;0.13;;;;;;;13.97;100.00;100328.53;7392218;19;20021;-56
2022/11/26 00:13:17;;;;;;;0.40;0.40;;;;;;;13.97;100.00;100326.47;7392484;19;20018;-56
2022/11/26 00:15:43;;;;;;;2.15;0.70;;;;;;;13.93;100.00;100317.50;7388864;19;20372;-57
2022/11/26 00:18:11;;;;;;;2.75;1.20;;;;;;;13.76;100.00;100312.94;7391339;19;20780;-56
2022/11/26 00:20:38;;;;;;;0.10;0.10;;;;;;;13.40;100.00;100316.94;7391723;19;20007;-56
2022/11/26 00:23:04;;;;;;;3.00;0.57;;;;;;;13.41;100.00;100327.66;7391520;19;20014;-56
2022/11/26 00:25:41;;;;;;;0.10;0.10;;;;;;;13.42;100.00;100323.63;7391233;19;20022;-56
2022/11/26 00:28:19;;;;;;;1.55;0.52;;;;;;;13.46;100.00;100323.41;7391824;19;20070;-56
2022/11/26 00:30:45;;;;;;;0.73;0.45;;;;;;;13.80;100.00;100319.09;7391650;19;20006;-56
2022/11/26 00:33:11;;;;;;;0.10;0.00;;;;;;;14.05;100.00;100324.84;7391008;19;20015;-56
2022/11/26 00:35:37;;;;;;;0.28;0.28;;;;;;;14.13;100.00;100320.34;7391584;19;20010;-56
2022/11/26 00:38:04;;;;;;;6.40;0.63;;;;;;;14.19;100.00;100314.81;7390837;19;20439;-56
2022/11/26 00:40:32;;;;;;;0.10;0.10;;;;;;;13.92;100.00;100320.81;7388921;19;20014;-56
2022/11/26 00:42:58;;;;;;;0.68;0.68;;;;;;;13.83;100.00;100335.69;7388969;19;20015;-56
2022/11/26 00:45:27;;;;;;;7.57;1.48;;;;;;;13.82;100.00;100327.81;7393572;19;20010;-56
2022/11/26 00:47:56;;;;;;;1.58;0.38;;;;;;;13.73;100.00;100319.50;7390679;19;20015;-56
2022/11/26 00:50:25;;;;;;;0.95;0.15;;;;;;;13.80;100.00;100324.69;7387190;19;20014;-57
2022/11/26 00:52:54;;;;;;;0.63;0.20;;;;;;;13.67;100.00;100317.38;7389170;19;20355;-56
2022/11/26 00:55:37;;;;;;;0.15;0.15;;;;;;;13.60;100.00;100326.19;7390285;19;20003;-57
2022/11/26 00:58:05;;;;;;;0.10;0.10;;;;;;;13.66;100.00;100324.22;7389815;19;20011;-57
2022/11/26 01:00:33;;;;;;;0.32;0.32;;;;;;;13.68;100.00;100318.16;7387602;19;20109;-57
2022/11/26 01:03:01;;;;;;;4.88;0.60;;;;;;;13.91;100.00;100311.63;7390152;19;20082;-56
2022/11/26 01:05:30;;;;;;;13.25;1.20;;;;;;;13.92;100.00;100320.81;7390770;19;20015;-57
2022/11/26 01:08:18;;;;;;;1.35;0.60;;;;;;;13.96;100.00;100324.94;7391645;19;20345;-57
2022/11/26 01:10:44;;;;;;;0.95;0.70;;;;;;;13.93;100.00;100327.94;7388932;19;20010;-57
2022/11/26 01:13:10;;;;;;;0.57;0.38;;;;;;;13.79;100.00;100328.75;7390705;19;20352;-56
2022/11/26 01:15:36;;;;;;;1.83;0.43;;;;;;;13.81;100.00;100326.25;7389779;19;20018;-57
2022/11/26 01:18:23;;;;;;;0.85;0.22;;;;;;;13.86;100.00;100331.16;7388882;19;20022;-57
2022/11/26 01:20:50;;;;;;;0.10;0.08;;;;;;;13.86;100.00;100336.75;7390116;19;20014;-57
2022/11/26 01:23:18;;;;;;;0.90;0.55;;;;;;;13.73;100.00;100341.91;7389300;19;20010;-57
2022/11/26 01:25:45;;;;;;;1.35;0.45;;;;;;;13.66;100.00;100349.41;7390253;19;20014;-56
2022/11/26 01:28:14;;;;;;;0.10;0.10;;;;;;;13.72;100.00;100349.53;7389340;19;20023;-56
2022/11/26 01:30:41;;;;;;;0.65;0.65;;;;;;;13.65;100.00;100342.28;7387543;19;20014;-57
2022/11/26 01:33:07;;;;;;;0.80;0.10;;;;;;;13.65;100.00;100342.28;7388806;19;20351;-57
2022/11/26 01:35:34;;;;;;;0.10;0.10;;;;;;;13.64;100.00;100346.34;7388263;19;20023;-56
2022/11/26 01:38:00;;;;;;;0.20;0.20;;;;;;;13.61;100.00;100338.16;7387298;19;20379;-57
2022/11/26 01:40:50;;;;;;;3.85;0.63;;;;;;;13.51;100.00;100342.31;7386789;19;20010;-56
2022/11/26 01:43:25;;;;;;;9.90;0.93;;;;;;;13.68;100.00;100340.56;7387517;19;20379;-56
2022/11/26 01:45:52;;;;;;;0.10;0.10;;;;;;;13.93;100.00;100344.75;7388431;19;20035;-56
2022/11/26 01:48:37;;;;;;;0.28;0.28;;;;;;;13.91;100.00;100345.22;7389623;19;20074;-57
2022/11/26 01:51:06;;;;;;;7.53;2.38;;;;;;;13.88;100.00;100345.44;7389904;19;20016;-57
2022/11/26 01:53:40;;;;;;;1.13;0.40;;;;;;;13.80;100.00;100352.69;7388376;19;20018;-57
2022/11/26 01:56:55;;;;;;;0.13;0.10;;;;;;;13.80;100.00;100358.28;7387316;19;20344;-57
2022/11/26 01:59:33;;;;;;;0.10;0.00;;;;;;;13.71;100.00;100352.81;7384516;19;20014;-57
2022/11/26 02:02:00;;;;;;;0.32;0.32;;;;;;;13.78;100.00;100347.56;7387890;19;20085;-57
2022/11/26 02:04:36;;;;;;;0.55;0.38;;;;;;;13.80;100.00;100350.66;7392307;19;20019;-57
2022/11/26 02:07:03;;;;;;;1.48;0.65;;;;;;;13.66;100.00;100341.03;7396412;19;20337;-57
2022/11/26 02:09:30;;;;;;;1.05;0.55;;;;;;;13.61;100.00;100340.94;7393328;19;20007;-57
2022/11/26 02:11:56;;;;;;;0.75;0.30;;;;;;;13.56;100.00;100345.19;7398885;19;20354;-57
2022/11/26 02:14:31;;;;;;;0.10;0.10;;;;;;;13.47;100.00;100341.75;7397111;19;20014;-57
2022/11/26 02:17:21;;;;;;;0.10;0.10;;;;;;;13.42;100.00;100334.81;7395959;19;20015;-57
2022/11/26 02:20:17;;;;;;;8.57;0.63;;;;;;;13.40;100.00;100345.72;7395571;19;20010;-57
2022/11/26 02:22:58;;;;;;;0.70;0.20;;;;;;;13.33;100.00;100345.31;7399198;19;20014;-57
2022/11/26 02:25:28;;;;;;;;;;;;;;;13.19;100.00;100335.66;7394678;19;20096;-57
2022/11/26 02:28:12;;;;;;;0.57;0.30;;;;;;;13.13;100.00;100345.19;7396153;19;20252;-57
2022/11/26 02:30:45;;;;;;;1.83;0.35;;;;;;;13.11;100.00;100340.09;7392384;19;20015;-57
2022/11/26 02:33:25;;;;;;;0.10;0.10;;;;;;;13.09;100.00;100344.63;7394017;19;20070;-56
2022/11/26 02:36:08;;;;;;;0.55;0.47;;;;;;;13.03;100.00;100346.53;7393431;19;20015;-57
2022/11/26 02:38:36;;;;;;;0.20;0.20;;;;;;;13.15;100.00;100337.09;7394508;19;20014;-57
2022/11/26 02:41:03;;;;;;;1.85;1.10;;;;;;;13.03;100.00;100341.72;7394421;19;20021;-56
2022/11/26 02:43:30;;;;;;;0.98;0.55;;;;;;;13.03;100.00;100324.16;7394831;19;20470;-57
2022/11/26 02:46:07;;;;;;;0.75;0.32;;;;;;;13.22;100.00;100331.91;7394385;19;20014;-57
2022/11/26 02:48:39;;;;;;;0.20;0.20;;;;;;;13.49;100.00;100326.00;7394205;19;20007;-57
2022/11/26 02:51:11;;;;;;;0.03;0.00;;;;;;;13.28;100.00;100332.00;7395001;19;20010;-57
2022/11/26 02:53:38;;;;;;;0.20;0.20;;;;;;;13.34;100.00;100332.88;7393025;19;20015;-57
2022/11/26 02:56:12;;;;;;;0.10;0.10;;;;;;;13.28;100.00;100332.75;7393219;19;20014;-56
2022/11/26 02:58:39;;;;;;;0.57;0.57;;;;;;;13.00;100.00;100341.88;7392032;19;20018;-57
2022/11/26 03:01:11;;;;;;;0.20;0.20;;;;;;;13.32;100.00;100327.75;7394820;19;20010;-57
2022/11/26 03:03:45;;;;;;;0.20;0.20;;;;;;;13.42;100.00;100334.81;7391948;19;20353;-57
2022/11/26 03:06:13;;;;;;;0.28;0.28;;;;;;;13.41;100.00;100327.66;7391985;19;20109;-57
2022/11/26 03:08:41;;;;;;;3.30;0.50;;;;;;;13.30;100.00;100324.66;7394512;19;20030;-57
2022/11/26 03:11:08;;;;;;;0.10;0.10;;;;;;;13.23;100.00;100322.25;7393135;19;20021;-56
2022/11/26 03:13:34;;;;;;;0.10;0.10;;;;;;;13.21;100.00;100329.59;7388820;19;20018;-56
2022/11/26 03:16:00;;;;;;;1.23;0.88;;;;;;;13.21;100.00;100344.34;7389648;19;20002;-57
2022/11/26 03:18:26;;;;;;;0.10;0.10;;;;;;;13.20;100.00;100337.22;7393019;19;20090;-57
2022/11/26 03:20:53;;;;;;;2.85;0.50;;;;;;;13.45;100.00;100347.81;7393990;19;20084;-56
2022/11/26 03:23:19;;;;;;;0.68;0.43;;;;;;;13.44;100.00;100348.31;7393761;19;20027;-57
2022/11/26 03:25:45;;;;;;;0.20;0.20;;;;;;;13.56;100.00;100345.19;7392418;19;20699;-57
2022/11/26 03:28:11;;;;;;;0.10;0.10;;;;;;;13.52;100.00;100343.84;7392890;19;20034;-57
2022/11/26 03:30:37;;;;;;;9.43;0.65;;;;;;;13.52;100.00;100346.66;7388962;19;20014;-57
2022/11/26 03:33:03;;;;;;;1.85;0.57;;;;;;;13.67;100.00;100355.78;7391978;19;20018;-56
2022/11/26 03:35:29;;;;;;;0.10;0.10;;;;;;;13.74;100.00;100343.44;7392662;19;20010;-56
2022/11/26 03:37:55;;;;;;;0.20;0.10;;;;;;;13.67;100.00;100336.97;7392052;19;20010;-56
2022/11/26 03:40:22;;;;;;;0.10;0.10;;;;;;;13.53;100.00;100346.19;7391959;19;20010;-57
2022/11/26 03:42:48;;;;;;;9.45;0.63;;;;;;;13.44;100.00;100349.06;7390779;19;20010;-57
2022/11/26 03:45:14;;;;;;;0.17;0.17;;;;;;;13.49;100.00;100351.19;7396593;19;20017;-57
2022/11/26 03:47:40;;;;;;;0.10;0.10;;;;;;;13.50;100.00;100335.94;7393050;19;20030;-57
2022/11/26 03:50:07;;;;;;;0.32;0.10;;;;;;;13.41;100.00;100327.66;7390745;19;20021;-57
2022/11/26 03:52:33;;;;;;;2.60;0.57;;;;;;;13.21;100.00;100319.16;7395636;19;20043;-57
2022/11/26 03:54:59;;;;;;;0.90;0.52;;;;;;;13.08;100.00;100315.88;7391545;19;20509;-57
2022/11/26 03:57:26;;;;;;;0.10;0.10;;;;;;;13.13;100.00;100322.81;7392255;19;20070;-57
2022/11/26 03:59:52;;;;;;;5.07;0.25;;;;;;;13.02;100.00;100320.56;7392680;19;20021;-57
2022/11/26 04:02:18;;;;;;;0.10;0.10;;;;;;;13.02;100.00;100317.78;7395207;19;20014;-57
2022/11/26 04:04:44;;;;;;;1.65;0.93;;;;;;;12.90;100.00;100314.03;7390610;19;20002;-57
2022/11/26 04:07:10;;;;;;;0.10;0.10;;;;;;;12.89;100.00;100306.09;7392871;19;20034;-57
2022/11/26 04:09:36;;;;;;;1.85;0.70;;;;;;;12.66;100.00;100318.13;7390329;19;20011;-57
2022/11/26 04:12:03;;;;;;;0.10;0.10;;;;;;;12.68;100.00;100318.41;7393939;19;20013;-57
2022/11/26 04:14:29;;;;;;;0.20;0.20;;;;;;;12.86;100.00;100321.06;7394418;19;20037;-57
2022/11/26 04:16:55;;;;;;;0.10;0.10;;;;;;;12.90;100.00;100328.00;7391974;19;20010;-57
2022/11/26 04:19:21;;;;;;;0.15;0.15;;;;;;;12.99;100.00;100323.56;7392087;19;20010;-57
2022/11/26 04:21:47;;;;;;;0.10;0.10;;;;;;;12.75;100.00;100324.41;7392988;19;20017;-57
2022/11/26 04:24:14;;;;;;;0.13;0.10;;;;;;;12.84;100.00;100329.16;7390970;19;20006;-57
2022/11/26 04:26:40;;;;;;;0.20;0.20;;;;;;;12.68;100.00;100327.56;7388463;19;20032;-57
2022/11/26 04:29:06;;;;;;;0.73;0.35;;;;;;;12.63;100.00;100330.25;7390188;19;20432;-57
2022/11/26 04:31:32;;;;;;;0.30;0.30;;;;;;;12.80;100.00;100334.91;7393327;19;20031;-57
2022/11/26 04:33:58;;;;;;;0.95;0.40;;;;;;;13.05;100.00;100333.63;7391104;19;20013;-57
2022/11/26 04:36:24;;;;;;;0.43;0.43;;;;;;;13.10;100.00;100324.59;7391103;19;20014;-57
2022/11/26 04:38:50;;;;;;;0.43;0.22;;;;;;;12.89;100.00;100320.09;7390513;19;20021;-57
2022/11/26 04:41:17;;;;;;;0.10;0.10;;;;;;;13.25;100.00;100319.00;7393315;19;20011;-57
2022/11/26 04:43:43;;;;;;;0.10;0.05;;;;;;;13.37;100.00;100326.31;7391427;19;20014;-57
2022/11/26 04:46:09;;;;;;;0.10;0.10;;;;;;;13.26;100.00;100314.91;7391046;19;20440;-57
2022/11/26 04:48:35;;;;;;;0.17;0.17;;;;;;;13.30;100.00;100321.88;7390980;19;20369;-57
2022/11/26 04:51:01;;;;;;;3.13;0.75;;;;;;;13.21;100.00;100319.16;7390932;19;20014;-57
2022/11/26 04:53:27;;;;;;;0.50;0.10;;;;;;;13.16;100.00;100327.47;7390205;19;20463;-57
2022/11/26 04:55:53;;;;;;;0.30;0.17;;;;;;;13.22;100.00;100337.50;7390537;19;20014;-57
2022/11/26 04:58:20;;;;;;;0.20;0.15;;;;;;;13.38;100.00;100337.00;7390350;19;20455;-57
2022/11/26 05:00:47;;;;;;;0.40;0.20;;;;;;;13.30;100.00;100344.25;7389676;19;20021;-57
2022/11/26 05:03:13;;;;;;;1.25;0.30;;;;;;;13.41;100.00;100346.47;7390431;19;20027;-57
2022/11/26 05:05:39;;;;;;;0.20;0.20;;;;;;;13.44;100.00;100343.47;7390461;19;20006;-56
2022/11/26 05:08:06;;;;;;;9.77;1.40;;;;;;;13.32;100.00;100346.56;7392013;19;20328;-57
2022/11/26 05:10:32;;;;;;;0.20;0.20;;;;;;;13.27;100.00;100356.41;7387073;19;20032;-57
2022/11/26 05:12:59;;;;;;;0.73;0.57;;;;;;;13.43;100.00;100352.34;7389778;19;20025;-57
2022/11/26 05:15:25;;;;;;;0.13;0.13;;;;;;;13.40;100.00;100348.50;7393677;19;20096;-57
2022/11/26 05:17:51;;;;;;;0.20;0.10;;;;;;;13.37;100.00;100355.06;7389869;19;20108;-57
2022/11/26 05:20:17;;;;;;;4.38;1.05;;;;;;;13.35;100.00;100351.97;7389459;19;20370;-57
2022/11/26 05:22:43;;;;;;;1.33;0.55;;;;;;;13.19;100.00;100355.22;7393557;19;20014;-57
2022/11/26 05:25:10;;;;;;;0.63;0.52;;;;;;;13.22;100.00;100353.50;7389338;19;20459;-56
2022/11/26 05:27:36;;;;;;;1.73;1.05;;;;;;;13.20;100.00;100351.19;7389303;19;20022;-57
2022/11/26 05:30:03;;;;;;;2.63;0.45;;;;;;;13.13;100.00;100354.38;7387798;19;20010;-57
2022/11/26 05:32:29;;;;;;;2.10;0.20;;;;;;;13.20;100.00;100353.22;7392976;19;20010;-57
2022/11/26 05:34:55;;;;;;;0.30;0.30;;;;;;;13.13;100.00;100353.59;7389298;19;20374;-57
2022/11/26 05:37:21;;;;;;;0.30;0.10;;;;;;;13.11;100.00;100354.06;7391363;19;20035;-57
2022/11/26 05:39:48;;;;;;;1.35;0.30;;;;;;;13.17;100.00;100343.75;7395495;19;20011;-56
2022/11/26 05:42:14;;;;;;;0.10;0.10;;;;;;;13.09;100.00;100350.22;7400432;19;20006;-57
2022/11/26 05:44:40;;;;;;;0.35;0.35;;;;;;;13.04;100.00;100340.44;7397517;19;20023;-57
2022/11/26 05:47:06;;;;;;;0.22;0.22;;;;;;;12.98;100.00;100333.97;7395729;19;20014;-57
2022/11/26 05:49:32;;;;;;;1.00;0.73;;;;;;;12.93;100.00;100321.44;7394834;19;20022;-57
2022/11/26 05:51:59;;;;;;;0.20;0.20;;;;;;;12.88;100.00;100330.50;7398618;19;20030;-56
2022/11/26 05:54:25;;;;;;;0.10;0.10;;;;;;;12.83;100.00;100330.41;7395784;19;20014;-57
2022/11/26 05:56:51;;;;;;;1.23;0.63;;;;;;;12.73;100.00;100329.69;7395641;19;20026;-56
2022/11/26 05:59:17;;;;;;;0.75;0.63;;;;;;;12.70;100.00;100329.88;7395007;19;20467;-56
2022/11/26 06:01:44;;;;;;;0.82;0.30;;;;;;;12.86;100.00;100326.66;7398221;19;20014;-56
2022/11/26 06:04:10;;;;;;;8.10;0.50;;;;;;;12.99;100.00;100329.94;7394638;19;20010;-57
2022/11/26 06:06:36;;;;;;;1.17;0.45;;;;;;;13.03;100.00;100333.31;7398417;19;20011;-57
2022/11/26 06:09:02;;;;;;;0.10;0.10;;;;;;;12.96;100.00;100342.06;7395206;19;20756;-56
2022/11/26 06:11:28;;;;;;;0.57;0.50;;;;;;;12.84;100.00;100334.75;7397754;19;20015;-56
2022/11/26 06:13:55;;;;;;;0.40;0.40;;;;;;;12.70;100.00;100335.47;7396630;19;20011;-57
2022/11/26 06:16:21;;;;;;;0.95;0.45;;;;;;;12.74;100.00;100327.66;7393886;19;20011;-56
2022/11/26 06:18:47;;;;;;;0.10;0.10;;;;;;;12.66;100.00;100332.88;7395258;19;20079;-56
2022/11/26 06:21:13;;;;;;;2.22;0.57;;;;;;;12.76;100.00;100339.13;7396276;19;20018;-57
2022/11/26 06:23:39;;;;;;;0.77;0.68;;;;;;;12.70;100.00;100335.47;7393297;19;20010;-56
2022/11/26 06:26:07;;;;;;;0.10;0.10;;;;;;;12.56;100.00;100350.19;7394356;19;20007;-57
2022/11/26 06:28:34;;;;;;;1.45;0.77;;;;;;;12.44;100.00;100359.56;7394480;19;20014;-57
2022/11/26 06:31:00;;;;;;;2.03;0.98;;;;;;;12.54;100.00;100355.47;7395075;19;20018;-56
2022/11/26 06:33:26;;;;;;;0.43;0.43;;;;;;;12.32;100.00;100360.59;7394285;19;20010;-56
2022/11/26 06:35:57;;;;;;;0.68;0.20;;;;;;;12.29;100.00;100345.56;7394522;19;20007;-57
2022/11/26 06:38:23;;;;;;;0.45;0.45;;;;;;;12.46;100.00;100351.47;7394803;19;20015;-56
2022/11/26 06:41:00;;;;;;;0.20;0.20;;;;;;;12.41;100.00;100347.31;7395094;19;20015;-56
2022/11/26 06:43:26;;;;;;;0.17;0.17;;;;;;;12.30;100.00;100338.72;7395779;19;20066;-56
2022/11/26 06:45:53;;;;;;;1.58;0.32;;;;;;;12.15;100.00;100335.84;7393190;19;20015;-57
2022/11/26 06:48:23;;;;;;;0.30;0.30;;;;;;;12.30;100.00;100324.75;7393386;19;20518;-57
2022/11/26 06:50:49;;;;;;;0.10;0.10;;;;;;;12.37;100.00;100323.63;7392351;19;20474;-56
2022/11/26 06:53:16;;;;;;;0.28;0.28;;;;;;;12.33;100.00;100314.66;7394078;19;20014;-56
2022/11/26 06:55:42;;;;;;;0.88;0.68;;;;;;;12.18;100.00;100318.16;7394007;19;20044;-56
2022/11/26 06:58:08;;;;;;;0.35;0.35;;;;;;;12.18;100.00;100323.75;7394135;19;20007;-56
2022/11/26 07:00:34;;;;;;;0.20;0.20;;;;;;;12.18;100.00;100307.00;7391762;19;20017;-56
2022/11/26 07:03:00;;;;;;;2.08;0.93;;;;;;;12.26;100.00;100320.63;7393400;19;20018;-56
2022/11/26 07:05:27;;;;;;;0.10;0.10;;;;;;;12.25;100.00;100333.00;7393341;19;20070;-56
2022/11/26 07:07:53;;;;;;;8.07;0.57;;;;;;;12.18;100.00;100348.88;7396460;19;20018;-56
2022/11/26 07:10:19;;;;;;;0.75;0.32;;;;;;;12.34;100.00;100341.34;7391574;19;20011;-56
2022/11/26 07:12:45;;;;;;;2.15;0.88;;;;;;;12.43;100.00;100335.69;7396118;19;20437;-56
2022/11/26 07:15:11;;;;;;;0.10;0.10;;;;;;;12.47;100.00;100336.28;7395171;19;20471;-56
2022/11/26 07:17:37;;;;;;;0.40;0.35;;;;;;;12.45;100.00;100330.41;7391122;19;20018;-57
2022/11/26 07:20:04;;;;;;;0.28;0.28;;;;;;;12.42;100.00;100325.75;7392985;19;20022;-56
2022/11/26 07:22:30;;;;;;;2.45;0.75;;;;;;;12.32;100.00;100321.50;7397206;19;20041;-56
2022/11/26 07:24:56;;;;;;;3.13;0.30;;;;;;;12.38;100.00;100325.16;7392880;19;20015;-56
2022/11/26 07:27:22;;;;;;;0.45;0.40;;;;;;;12.01;100.00;100319.06;7390144;19;20015;-56
2022/11/26 07:29:50;;;;;;;0.95;0.70;;;;;;;12.23;100.00;100313.19;7390445;19;20361;-56
2022/11/26 07:32:17;;;;;;;1.13;0.55;;;;;;;12.11;100.00;100301.75;7395054;19;20017;-56
2022/11/26 07:34:43;;;;;;;3.78;1.27;;;;;;;12.16;100.00;100311.50;7390896;19;20010;-56
2022/11/26 07:37:09;;;;;;;0.15;0.15;;;;;;;12.28;100.00;100316.06;7392302;19;20018;-56
2022/11/26 07:39:35;;;;;;;0.40;0.40;;;;;;;12.71;100.00;100309.09;7393180;19;20032;-56
2022/11/26 07:42:01;;;;;;;1.02;0.20;;;;;;;12.74;100.00;100316.50;7395950;19;20365;-56
2022/11/26 07:44:27;;;;;;;0.25;0.10;;;;;;;12.97;100.00;100315.69;7395929;19;20487;-56
2022/11/26 07:46:53;;;;;;;0.32;0.32;;;;;;;12.92;100.00;100310.75;7392342;19;20078;-56
2022/11/26 07:49:19;;;;;;;0.10;0.10;;;;;;;12.82;100.00;100320.47;7390774;19;20468;-56
2022/11/26 07:51:46;;;;;;;4.72;0.60;;;;;;;12.82;100.00;100314.88;7393076;19;20014;-56
2022/11/26 07:54:12;;;;;;;3.55;0.80;;;;;;;12.57;100.00;100318.97;7392336;19;20080;-56
2022/11/26 07:56:38;;;;;;;0.28;0.22;;;;;;;12.76;100.00;100316.78;7390853;19;20010;-56
2022/11/26 07:59:04;;;;;;;0.25;0.25;;;;;;;12.97;100.00;100303.72;7392274;19;20399;-56
2022/11/26 08:01:31;;;;;;;0.30;0.30;;;;;;;12.78;100.00;100297.50;7393100;19;20026;-56
2022/11/26 08:03:59;;;;;;;0.40;0.40;;;;;;;12.66;100.00;100304.16;7392510;19;20070;-56
2022/11/26 08:06:28;;;;;;;0.35;0.35;;;;;;;12.61;100.00;100299.22;7392028;19;20363;-56
2022/11/26 08:08:55;;;;;;;0.40;0.35;;;;;;;12.72;100.00;100289.03;7391088;19;20035;-56
2022/11/26 08:11:23;;;;;;;0.10;0.10;;;;;;;12.55;100.00;100295.53;7392359;19;20078;-56
2022/11/26 08:14:02;;;;;;;0.30;0.30;;;;;;;12.49;100.00;100287.06;7392652;19;20022;-56
2022/11/26 08:16:28;;;;;;;15.55;1.75;;;;;;;12.62;100.00;100287.59;7388793;19;20401;-56
2022/11/26 08:19:00;;;;;;;0.15;0.15;;;;;;;12.53;100.00;100292.47;7391570;19;20013;-56
2022/11/26 08:21:27;;;;;;;0.25;0.25;;;;;;;12.57;100.00;100288.25;7392810;19;20447;-56
2022/11/26 08:23:54;;;;;;;0.17;0.17;;;;;;;12.61;100.00;100299.22;7391297;19;20019;-56
2022/11/26 08:26:20;;;;;;;0.20;0.20;;;;;;;12.70;100.00;100299.16;7389388;19;20444;-56
2022/11/26 08:28:46;;;;;;;7.75;1.17;;;;;;;12.73;100.00;100312.16;7389917;19;20014;-56
2022/11/26 08:31:14;;;;;;;19.02;0.75;;;;;;;12.66;100.00;100312.53;7392886;19;20035;-56
2022/11/26 08:33:42;;;;;;;1.55;1.05;;;;;;;12.80;100.00;100303.38;7390652;19;20062;-57
2022/11/26 08:36:11;;;;;;;0.85;0.17;;;;;;;12.72;100.00;100302.22;7390085;19;20011;-57
2022/11/26 08:38:37;;;;;;;0.52;0.52;;;;;;;12.69;100.00;100309.53;7390946;19;20007;-56
2022/11/26 08:41:10;;;;;;;1.48;0.38;;;;;;;13.07;100.00;100305.97;7391053;19;20010;-56
2022/11/26 08:43:37;;;;;;;1.20;0.45;;;;;;;12.98;100.00;100296.84;7391433;19;20019;-56
2022/11/26 08:46:04;;;;;;;1.75;1.08;;;;;;;13.16;100.00;100300.28;7388991;19;20010;-56
2022/11/26 08:48:30;;;;;;;0.30;0.30;;;;;;;13.18;100.00;100297.78;7390715;19;20027;-56
2022/11/26 08:50:59;;;;;;;0.98;0.40;;;;;;;13.42;100.00;100301.22;7389246;19;20356;-56
2022/11/26 08:53:30;;;;;;;0.45;0.45;;;;;;;13.55;100.00;100303.72;7389775;19;20035;-56
2022/11/26 08:56:03;;;;;;;0.10;0.10;;;;;;;13.60;100.00;100306.59;7389986;19;20042;-56
2022/11/26 08:58:32;;;;;;;0.38;0.38;;;;;;;13.50;100.00;100307.97;7390104;19;20010;-56
2022/11/26 09:00:58;;;;;;;0.22;0.15;;;;;;;13.55;100.00;100292.53;7390712;19;20019;-56
2022/11/26 09:03:25;;;;;;;1.25;0.55;;;;;;;13.62;100.00;100298.47;7388700;19;20015;-56
2022/11/26 09:05:51;;;;;;;1.55;0.35;;;;;;;13.54;100.00;100288.94;7389321;19;20478;-56
2022/11/26 09:08:17;;;;;;;0.65;0.65;;;;;;;13.83;100.00;100292.94;7393317;19;20007;-56
2022/11/26 09:10:53;;;;;;;0.10;0.10;;;;;;;13.81;100.00;100304.63;7388567;19;20006;-56
2022/11/26 09:13:19;;;;;;;0.28;0.28;;;;;;;13.83;100.00;100293.72;7389693;19;20011;-56
2022/11/26 09:15:45;;;;;;;0.30;0.20;;;;;;;13.86;100.00;100294.78;7389151;19;20013;-56
2022/11/26 09:18:11;;;;;;;5.05;0.88;;;;;;;13.88;100.00;100295.06;7390445;19;20014;-56
2022/11/26 09:20:37;;;;;;;1.58;1.00;;;;;;;13.85;100.00;100299.59;7389038;19;20011;-56
2022/11/26 09:23:03;;;;;;;0.63;0.63;;;;;;;13.92;100.00;100299.19;7389517;19;20014;-56
2022/11/26 09:25:29;;;;;;;1.55;0.43;;;;;;;13.90;100.00;100295.34;7388572;19;20062;-56
2022/11/26 09:27:55;;;;;;;0.32;0.32;;;;;;;14.02;100.00;100299.81;7389357;19;20014;-56
2022/11/26 09:30:21;;;;;;;3.97;2.10;;;;;;;14.04;100.00;100300.09;7386793;19;20018;-56
2022/11/26 09:32:47;;;;;;;5.93;0.43;;;;;;;13.93;100.00;100294.34;7388152;19;20018;-56
2022/11/26 09:35:14;;;;;;;0.65;0.20;;;;;;;13.86;100.00;100283.56;7386994;19;20006;-56
2022/11/26 09:37:40;;;;;;;3.25;0.38;;;;;;;14.01;100.00;100292.69;7389861;19;20048;-56
2022/11/26 09:40:09;;;;;;;1.30;0.30;;;;;;;14.08;100.00;100292.25;7387807;19;20019;-56
2022/11/26 09:42:36;;;;;;;2.20;1.20;;;;;;;14.09;100.00;100286.19;7392780;19;20373;-56
2022/11/26 09:45:22;;;;;;;4.03;0.85;;;;;;;14.14;100.00;100287.53;7391716;19;20460;-56
2022/11/26 09:47:51;;;;;;;2.05;0.68;;;;;;;14.20;100.00;100303.13;7388208;19;20046;-56
2022/11/26 09:50:30;;;;;;;0.40;0.40;;;;;;;14.28;100.00;100304.25;7385706;19;20022;-56
2022/11/26 09:53:18;;;;;;;0.85;0.40;;;;;;;14.41;100.00;100284.31;7386543;19;20455;-56
2022/11/26 09:55:48;;;;;;;0.95;0.57;;;;;;;14.50;100.00;100298.19;7386496;19;20074;-56
2022/11/26 09:58:14;;;;;;;0.80;0.80;;;;;;;14.45;100.00;100298.88;7386026;19;20018;-56
2022/11/26 10:00:50;;;;;;;10.25;0.93;;;;;;;14.46;100.00;100294.81;7387215;19;20075;-56
2022/11/26 10:03:22;;;;;;;2.13;0.70;;;;;;;14.45;100.00;100287.66;7387830;19;20108;-56
2022/11/26 10:06:08;;;;;;;0.10;0.10;;;;;;;14.50;100.00;100291.81;7388612;19;20011;-56
2022/11/26 10:08:49;;;;;;;1.23;1.13;;;;;;;14.41;100.00;100292.72;7392489;19;20036;-56
2022/11/26 10:11:24;;;;;;;;;;;;;;;14.57;100.00;100292.16;7390682;19;20559;-56
2022/11/26 10:14:05;;;;;;;3.53;0.17;;;;;;;14.41;100.00;100279.47;7389801;19;20006;-56
2022/11/26 10:16:44;;;;;;;0.73;0.32;;;;;;;14.55;100.00;100277.88;7387491;19;20010;-56
2022/11/26 10:19:26;;;;;;;0.22;0.22;;;;;;;14.63;100.00;100272.59;7387637;19;20460;-56
2022/11/26 10:21:57;;;;;;;2.38;0.40;;;;;;;14.77;100.00;100266.88;7389246;19;20035;-56
2022/11/26 10:24:32;;;;;;;;;;;;;;;14.84;100.00;100260.06;7390444;19;20036;-56
2022/11/26 10:27:12;;;;;;;5.10;0.40;;;;;;;14.75;100.00;100246.97;7394667;19;19932;-56
2022/11/26 10:29:45;;;;;;;0.30;0.30;;;;;;;14.79;100.00;100246.75;7392731;19;20022;-56
2022/11/26 10:32:36;;;;;;;2.60;0.47;;;;;;;14.71;100.00;100229.59;7395996;19;20069;-56
2022/11/26 10:35:02;;;;;;;;;;;;;;;14.81;100.00;100227.41;7394978;19;20389;-56
2022/11/26 10:37:29;;;;;;;0.52;0.35;;;;;;;14.75;100.00;100224.53;7392251;19;20336;-56
2022/11/26 10:40:29;;;;;;;11.55;0.95;;;;;;;14.82;100.00;100224.09;7392043;19;20007;-56
2022/11/26 10:42:58;;;;;;;1.00;0.47;;;;;;;14.90;100.00;100219.59;7395500;19;20014;-56
2022/11/26 10:45:35;;;;;;;0.30;0.30;;;;;;;15.09;100.00;100209.53;7397014;19;20022;-56
2022/11/26 10:48:22;;;;;;;0.85;0.35;;;;;;;15.18;100.00;100209.34;7393331;19;20010;-56
2022/11/26 10:50:57;;;;;;;8.68;0.85;;;;;;;14.94;100.00;100203.28;7393055;19;20040;-56
2022/11/26 10:53:26;;;;;;;3.67;1.17;;;;;;;15.07;100.00;100195.25;7393001;19;20491;-59
2022/11/26 10:55:57;;;;;;;0.80;0.40;;;;;;;15.19;100.00;100188.47;7393049;19;20014;-56
2022/11/26 10:58:32;;;;;;;0.80;0.55;;;;;;;15.32;100.00;100187.25;7393019;19;20023;-56
2022/11/26 11:01:03;;;;;;;0.20;0.20;;;;;;;15.46;100.00;100173.13;7394242;19;20014;-56
2022/11/26 11:03:45;;;;;;;1.73;0.82;;;;;;;15.49;100.00;100174.13;7392334;19;20006;-56
2022/11/26 11:06:17;;;;;;;0.52;0.32;;;;;;;15.45;100.00;100168.75;7392233;19;20023;-56
2022/11/26 11:08:47;;;;;;;0.47;0.47;;;;;;;15.35;100.00;100175.06;7398562;19;20366;-56
2022/11/26 11:11:20;;;;;;;1.10;0.97;;;;;;;15.24;100.00;100172.16;7396121;19;20023;-57
2022/11/26 11:13:47;;;;;;;5.72;0.38;;;;;;;15.16;100.00;100164.19;7393084;19;20039;-56
2022/11/26 11:16:18;;;;;;;1.17;0.52;;;;;;;15.12;100.00;100174.88;7392682;19;20011;-56
2022/11/26 11:18:56;;;;;;;3.97;0.85;;;;;;;15.11;100.00;100172.59;7393856;19;20471;-56
2022/11/26 11:21:29;;;;;;;0.47;0.32;;;;;;;15.20;100.00;100170.34;7393427;19;20114;-56
2022/11/26 11:24:24;;;;;;;0.65;0.50;;;;;;;15.26;100.00;100178.81;7391582;19;20010;-57
2022/11/26 11:26:52;;;;;;;0.60;0.50;;;;;;;15.23;100.00;100179.03;7391228;19;20039;-56